Time;durP1;ratioP1;P1;durP2;ratioP2;P2;SDS_P1;SDS_P2;PMS_P1;PMS_P2;Temp;Humidity;BMP_temperature;BMP_pressure;BME280_temperature;BME280_humidity;BME280_pressure;Samples;Min_cycle;Max_cycle;Signal;HPM_P1;HPM_P2
2022/01/11 00:01:19;;;;;;;33.50;10.47;;;1.90;96.20;;;;;;5098797;28;20038;-74
2022/01/11 00:03:45;;;;;;;30.77;12.57;;;1.90;96.20;;;;;;5117256;28;20106;-76
2022/01/11 00:08:48;;;;;;;35.60;12.17;;;1.90;96.50;;;;;;5116976;28;20158;-74
2022/01/11 00:11:13;;;;;;;37.80;11.93;;;1.90;96.10;;;;;;5116005;28;20031;-75
2022/01/11 00:13:41;;;;;;;34.10;12.93;;;1.80;96.10;;;;;;5117254;28;20085;-74
2022/01/11 00:16:09;;;;;;;37.87;13.60;;;1.70;96.20;;;;;;5116907;28;20024;-74
2022/01/11 00:18:35;;;;;;;33.93;13.87;;;1.80;96.50;;;;;;5115605;28;20051;-74
2022/01/11 00:21:01;;;;;;;34.20;14.10;;;1.70;96.40;;;;;;5115419;28;20081;-75
2022/01/11 00:25:55;;;;;;;32.17;12.80;;;1.70;96.40;;;;;;5115600;28;20027;-74
2022/01/11 00:28:23;;;;;;;49.70;14.77;;;1.60;96.30;;;;;;5115456;28;20047;-75
2022/01/11 00:30:50;;;;;;;41.67;13.87;;;1.70;96.50;;;;;;5115206;28;20049;-75
2022/01/11 00:33:22;;;;;;;40.60;13.20;;;1.60;96.60;;;;;;5116467;28;20107;-75
2022/01/11 00:35:59;;;;;;;33.70;14.20;;;1.60;96.60;;;;;;5116006;28;20031;-75
2022/01/11 00:38:27;;;;;;;40.00;15.17;;;1.70;96.80;;;;;;5115270;28;20032;-75
2022/01/11 00:40:57;;;;;;;34.93;16.03;;;1.60;97.00;;;;;;5115029;28;20352;-75
2022/01/11 00:43:24;;;;;;;42.67;14.10;;;1.60;96.80;;;;;;5116252;28;20058;-75
2022/01/11 00:45:51;;;;;;;39.10;12.37;;;1.50;96.70;;;;;;5116222;28;20030;-75
2022/01/11 00:48:17;;;;;;;44.97;14.40;;;1.50;96.70;;;;;;5098046;28;20085;-75
2022/01/11 00:50:44;;;;;;;41.17;13.87;;;1.50;97.00;;;;;;5116424;28;20035;-75
2022/01/11 00:53:10;;;;;;;39.13;12.77;;;1.50;96.90;;;;;;5116281;28;20027;-75
2022/01/11 00:55:38;;;;;;;36.43;15.17;;;1.40;96.80;;;;;;5098241;28;20055;-75
2022/01/11 00:58:05;;;;;;;32.57;13.60;;;1.40;97.00;;;;;;5115125;28;20084;-75
2022/01/11 01:00:32;;;;;;;38.17;13.57;;;1.40;97.00;;;;;;5097739;28;20051;-75
2022/01/11 01:02:57;;;;;;;34.80;13.00;;;1.40;97.00;;;;;;5114887;28;20106;-75
2022/01/11 01:05:23;;;;;;;38.00;13.90;;;1.40;97.00;;;;;;5114681;28;20416;-74
2022/01/11 01:07:50;;;;;;;38.33;13.00;;;1.50;96.90;;;;;;5116361;28;20027;-75
2022/01/11 01:12:48;;;;;;;37.97;13.50;;;1.50;97.10;;;;;;5116599;28;20122;-75
2022/01/11 01:15:14;;;;;;;59.43;13.83;;;1.40;97.00;;;;;;5097473;28;20059;-75
2022/01/11 01:17:40;;;;;;;40.93;14.23;;;1.40;97.10;;;;;;5114495;28;20039;-75
2022/01/11 01:20:07;;;;;;;32.50;14.33;;;1.30;97.20;;;;;;5115655;28;20388;-75
2022/01/11 01:22:32;;;;;;;34.93;12.60;;;1.30;97.20;;;;;;5115552;28;20387;-75
2022/01/11 01:24:58;;;;;;;43.27;12.77;;;1.30;97.20;;;;;;5114644;28;20019;-75
2022/01/11 01:27:24;;;;;;;48.03;13.73;;;1.30;97.30;;;;;;5115561;28;20525;-75
2022/01/11 01:29:50;;;;;;;37.47;14.73;;;1.40;97.30;;;;;;5093992;28;20024;-75
2022/01/11 01:32:16;;;;;;;38.37;13.83;;;1.40;97.50;;;;;;5093955;28;20499;-75
2022/01/11 01:34:41;;;;;;;37.80;14.60;;;1.40;97.50;;;;;;5095223;28;20486;-75
2022/01/11 01:37:08;;;;;;;36.07;16.10;;;1.40;97.50;;;;;;5093407;28;20020;-75
2022/01/11 01:39:35;;;;;;;43.17;15.23;;;1.40;97.50;;;;;;5095233;28;20024;-75
2022/01/11 01:42:06;;;;;;;35.87;14.20;;;1.40;97.50;;;;;;5094159;28;20036;-75
2022/01/11 01:44:33;;;;;;;30.63;13.33;;;1.40;97.40;;;;;;5109337;28;20023;-75
2022/01/11 01:46:59;;;;;;;30.43;14.07;;;1.40;97.50;;;;;;5097559;28;20077;-75
2022/01/11 01:49:26;;;;;;;33.50;13.30;;;1.40;97.60;;;;;;5114066;28;20035;-75
2022/01/11 01:51:52;;;;;;;35.77;15.00;;;1.40;97.70;;;;;;5113957;28;20020;-75
2022/01/11 01:54:18;;;;;;;36.10;15.23;;;1.30;97.70;;;;;;5097142;28;20042;-75
2022/01/11 01:56:44;;;;;;;28.57;13.83;;;1.50;97.90;;;;;;5096839;28;20071;-74
2022/01/11 01:59:11;;;;;;;30.50;15.27;;;1.50;97.80;;;;;;5114309;28;20050;-75
2022/01/11 02:01:44;;;;;;;30.03;14.73;;;1.50;97.90;;;;;;5113530;28;20034;-75
2022/01/11 02:04:10;;;;;;;27.60;14.03;;;1.50;98.00;;;;;;5114011;28;20019;-74
2022/01/11 02:06:37;;;;;;;33.67;14.13;;;1.50;98.00;;;;;;5113929;28;20016;-74
2022/01/11 02:09:03;;;;;;;33.83;13.90;;;1.50;98.00;;;;;;5113826;28;20019;-74
2022/01/11 02:11:31;;;;;;;32.33;15.00;;;1.40;98.00;;;;;;5114755;28;20023;-75
2022/01/11 02:13:56;;;;;;;27.87;13.73;;;1.40;98.00;;;;;;5113105;28;20081;-75
2022/01/11 02:16:23;;;;;;;27.07;13.70;;;1.50;98.00;;;;;;5096430;28;20475;-75
2022/01/11 02:18:50;;;;;;;34.13;14.87;;;1.60;98.10;;;;;;5113439;28;20023;-75
2022/01/11 02:21:16;;;;;;;38.30;15.33;;;1.40;98.10;;;;;;5113619;28;20119;-75
2022/01/11 02:23:42;;;;;;;34.57;14.43;;;1.50;98.30;;;;;;5113897;28;20380;-75
2022/01/11 02:26:08;;;;;;;35.30;15.07;;;1.50;98.20;;;;;;5096526;28;20024;-75
2022/01/11 02:28:35;;;;;;;29.17;13.93;;;1.50;98.20;;;;;;5112760;28;20024;-75
2022/01/11 02:31:03;;;;;;;32.27;15.10;;;1.50;98.10;;;;;;5114494;28;20529;-75
2022/01/11 02:33:42;;;;;;;31.53;13.60;;;1.60;98.20;;;;;;5114306;28;20023;-75
2022/01/11 02:36:11;;;;;;;32.70;14.97;;;1.50;98.10;;;;;;5112977;28;20023;-75
2022/01/11 02:38:36;;;;;;;36.40;14.53;;;1.50;98.10;;;;;;5113062;28;20117;-75
2022/01/11 02:41:03;;;;;;;30.23;14.03;;;1.50;98.10;;;;;;5113162;28;20134;-75
2022/01/11 02:43:29;;;;;;;32.63;13.50;;;1.50;98.10;;;;;;5114353;28;20020;-75
2022/01/11 02:45:56;;;;;;;29.33;13.10;;;1.50;98.10;;;;;;5113464;28;20367;-75
2022/01/11 02:48:22;;;;;;;31.33;14.10;;;1.60;98.20;;;;;;5113285;28;20386;-75
2022/01/11 02:50:48;;;;;;;27.67;13.90;;;1.60;98.20;;;;;;5112958;28;20027;-75
2022/01/11 02:53:15;;;;;;;32.27;15.60;;;1.60;98.30;;;;;;5112760;28;20379;-75
2022/01/11 02:55:43;;;;;;;34.70;16.17;;;1.60;98.40;;;;;;5114452;28;20024;-75
2022/01/11 02:58:12;;;;;;;29.97;15.40;;;1.60;98.30;;;;;;5112829;28;20501;-75
2022/01/11 03:00:39;;;;;;;30.47;15.43;;;1.50;98.30;;;;;;5113574;28;20116;-75
2022/01/11 03:03:17;;;;;;;32.53;14.73;;;1.50;98.10;;;;;;5112743;28;20102;-75
2022/01/11 03:05:54;;;;;;;37.07;14.90;;;1.50;98.20;;;;;;5112583;28;20035;-75
2022/01/11 03:08:21;;;;;;;32.10;14.43;;;1.50;98.30;;;;;;5113633;28;20020;-74
2022/01/11 03:10:49;;;;;;;30.20;15.70;;;1.50;98.30;;;;;;5113939;28;20073;-73
2022/01/11 03:13:16;;;;;;;30.43;15.10;;;1.60;98.50;;;;;;5113058;28;20037;-74
2022/01/11 03:15:43;;;;;;;31.80;15.17;;;1.50;98.30;;;;;;5114372;28;20475;-74
2022/01/11 03:18:09;;;;;;;31.97;16.23;;;1.50;98.20;;;;;;5114484;28;20073;-73
2022/01/11 03:20:37;;;;;;;32.27;15.33;;;1.40;98.20;;;;;;5114124;28;20413;-74
2022/01/11 03:23:03;;;;;;;33.57;14.83;;;1.40;98.20;;;;;;5112754;28;20106;-74
2022/01/11 03:25:29;;;;;;;34.27;15.47;;;1.40;98.20;;;;;;5114013;28;20040;-75
2022/01/11 03:27:55;;;;;;;33.83;14.43;;;1.40;98.40;;;;;;5112570;28;20610;-75
2022/01/11 03:30:20;;;;;;;36.40;16.50;;;1.50;98.40;;;;;;5112595;28;20028;-74
2022/01/11 03:32:46;;;;;;;33.57;16.47;;;1.50;98.40;;;;;;5113885;28;20379;-74
2022/01/11 03:35:12;;;;;;;34.90;16.53;;;1.50;98.40;;;;;;5113832;28;20375;-74
2022/01/11 03:37:40;;;;;;;36.70;16.17;;;1.50;98.50;;;;;;5113771;28;20012;-74
2022/01/11 03:40:10;;;;;;;37.70;16.60;;;1.50;98.40;;;;;;5095034;28;20020;-74
2022/01/11 03:42:35;;;;;;;38.23;17.00;;;1.50;98.30;;;;;;5114134;28;20027;-75
2022/01/11 03:45:02;;;;;;;35.20;16.10;;;1.50;98.30;;;;;;5095270;28;20016;-74
2022/01/11 03:47:28;;;;;;;36.63;16.70;;;1.50;98.30;;;;;;5112970;28;20049;-74
2022/01/11 03:49:54;;;;;;;36.10;17.90;;;1.50;98.30;;;;;;5078845;28;20024;-74
2022/01/11 03:52:20;;;;;;;34.87;16.73;;;1.60;98.30;;;;;;5078409;28;20051;-75
2022/01/11 03:57:25;;;;;;;40.70;18.50;;;1.50;98.40;;;;;;5112928;28;20122;-75
2022/01/11 03:59:51;;;;;;;37.13;17.87;;;1.60;98.50;;;;;;5113976;28;20380;-75
2022/01/11 04:02:17;;;;;;;37.60;17.33;;;1.60;98.30;;;;;;5117419;28;20028;-74
2022/01/11 04:04:44;;;;;;;37.57;18.17;;;1.70;98.50;;;;;;5116130;28;20387;-74
2022/01/11 04:07:09;;;;;;;33.50;16.83;;;1.60;98.50;;;;;;5116101;28;20108;-74
2022/01/11 04:09:35;;;;;;;36.57;17.37;;;1.60;98.50;;;;;;5115646;28;20036;-74
2022/01/11 04:12:01;;;;;;;37.33;16.77;;;1.60;98.40;;;;;;5098761;28;20032;-75
2022/01/11 04:14:26;;;;;;;43.40;19.73;;;1.60;98.40;;;;;;5098819;28;20088;-74
2022/01/11 04:16:53;;;;;;;36.70;17.83;;;1.60;98.60;;;;;;5116889;28;20035;-74
2022/01/11 04:19:20;;;;;;;38.77;17.90;;;1.70;98.50;;;;;;5115673;28;20035;-74
2022/01/11 04:21:46;;;;;;;35.43;17.27;;;1.70;98.50;;;;;;5117201;28;20023;-75
2022/01/11 04:24:13;;;;;;;44.13;18.40;;;1.70;98.50;;;;;;5116683;28;20451;-74
2022/01/11 04:26:39;;;;;;;35.83;18.40;;;1.60;98.50;;;;;;5117037;28;20035;-75
2022/01/11 04:29:05;;;;;;;36.97;18.30;;;1.70;98.60;;;;;;5115197;28;20046;-75
2022/01/11 04:31:31;;;;;;;37.87;18.77;;;1.80;98.60;;;;;;5116483;28;20408;-74
2022/01/11 04:33:56;;;;;;;36.43;17.80;;;1.70;98.60;;;;;;5115410;28;20410;-74
2022/01/11 04:36:22;;;;;;;36.73;17.90;;;1.70;98.60;;;;;;5098666;28;20032;-73
2022/01/11 04:38:48;;;;;;;35.57;17.83;;;1.70;98.60;;;;;;5116366;28;20046;-75
2022/01/11 04:41:15;;;;;;;33.90;17.40;;;1.70;98.60;;;;;;5115720;28;20438;-75
2022/01/11 04:43:41;;;;;;;40.23;19.20;;;1.60;98.60;;;;;;5116433;27;20019;-74
2022/01/11 04:46:07;;;;;;;36.23;19.03;;;1.60;98.60;;;;;;5098530;28;20027;-74
2022/01/11 04:48:32;;;;;;;38.80;17.80;;;1.60;98.70;;;;;;5116467;28;20022;-74
2022/01/11 04:51:00;;;;;;;35.93;17.00;;;1.60;98.60;;;;;;5115657;28;20114;-74
2022/01/11 04:53:26;;;;;;;37.13;18.93;;;1.60;98.60;;;;;;5116257;28;20077;-75
2022/01/11 04:55:52;;;;;;;35.13;16.20;;;1.70;98.70;;;;;;5115324;28;20044;-75
2022/01/11 04:58:18;;;;;;;35.83;16.87;;;1.60;98.60;;;;;;5097872;28;20371;-75
2022/01/11 05:00:44;;;;;;;37.67;17.33;;;1.60;98.70;;;;;;5115941;28;20065;-74
2022/01/11 05:03:09;;;;;;;37.73;18.23;;;1.60;98.60;;;;;;5094187;28;20407;-74
2022/01/11 05:05:35;;;;;;;34.43;16.90;;;1.60;98.70;;;;;;5077451;28;20553;-74
2022/01/11 05:08:02;;;;;;;37.87;17.03;;;1.70;98.70;;;;;;5095248;28;20036;-74
2022/01/11 05:10:28;;;;;;;40.60;18.80;;;1.60;98.70;;;;;;5097265;28;20019;-76
2022/01/11 05:12:54;;;;;;;38.37;19.10;;;1.60;98.70;;;;;;5115548;28;20111;-76
2022/01/11 05:15:20;;;;;;;37.53;16.60;;;1.60;98.70;;;;;;5114755;28;20110;-74
2022/01/11 05:17:45;;;;;;;41.67;19.17;;;1.60;98.60;;;;;;5115908;28;20028;-74
2022/01/11 05:20:12;;;;;;;39.87;17.63;;;1.60;98.70;;;;;;5115656;28;20036;-74
2022/01/11 05:22:38;;;;;;;35.87;17.87;;;1.60;98.70;;;;;;5115531;28;20114;-74
2022/01/11 05:25:05;;;;;;;36.33;17.07;;;1.70;98.70;;;;;;5114243;28;20047;-75
2022/01/11 05:27:30;;;;;;;36.50;18.80;;;1.70;98.70;;;;;;5114359;28;20098;-75
2022/01/11 05:29:56;;;;;;;36.43;17.83;;;1.80;98.60;;;;;;5114394;28;20110;-75
2022/01/11 05:32:22;;;;;;;36.10;16.20;;;1.60;98.60;;;;;;5115400;28;20053;-75
2022/01/11 05:34:48;;;;;;;37.77;17.93;;;1.60;98.60;;;;;;5114087;28;20131;-75
2022/01/11 05:37:14;;;;;;;32.97;16.87;;;1.60;98.60;;;;;;5114125;28;20066;-75
2022/01/11 05:39:39;;;;;;;38.63;17.37;;;1.70;98.60;;;;;;5115115;28;20023;-75
2022/01/11 05:42:06;;;;;;;38.23;18.17;;;1.60;98.60;;;;;;5096946;28;20123;-75
2022/01/11 05:44:36;;;;;;;38.13;18.50;;;1.60;98.60;;;;;;5097297;28;20100;-75
2022/01/11 05:47:03;;;;;;;37.80;18.10;;;1.60;98.60;;;;;;5114434;28;20038;-75
2022/01/11 05:49:29;;;;;;;38.83;17.80;;;1.60;98.60;;;;;;5113471;28;20036;-75
2022/01/11 05:51:55;;;;;;;39.27;17.50;;;1.60;98.60;;;;;;5098319;28;20468;-75
2022/01/11 05:54:20;;;;;;;37.60;18.43;;;1.60;98.60;;;;;;5096980;28;20027;-75
2022/01/11 05:56:46;;;;;;;37.40;17.93;;;1.60;98.60;;;;;;5113212;28;20032;-75
2022/01/11 05:59:12;;;;;;;35.07;16.43;;;1.50;98.50;;;;;;5107257;28;20043;-75
2022/01/11 06:01:38;;;;;;;37.17;17.50;;;1.50;98.50;;;;;;5113058;28;20036;-74
2022/01/11 06:04:04;;;;;;;33.83;17.27;;;1.50;98.50;;;;;;5095956;28;20012;-75
2022/01/11 06:06:29;;;;;;;38.37;17.60;;;1.50;98.50;;;;;;5113166;28;20024;-75
2022/01/11 06:08:55;;;;;;;34.83;17.47;;;1.50;98.40;;;;;;5113599;28;20588;-74
2022/01/11 06:11:21;;;;;;;36.00;16.53;;;1.40;98.50;;;;;;5113538;28;20024;-74
2022/01/11 06:13:50;;;;;;;36.13;17.03;;;1.50;98.50;;;;;;5114491;28;20067;-74
2022/01/11 06:16:16;;;;;;;34.67;17.63;;;1.50;98.60;;;;;;5096692;28;20027;-76
2022/01/11 06:18:43;;;;;;;38.23;18.47;;;1.50;98.60;;;;;;5090118;28;20032;-74
2022/01/11 06:21:09;;;;;;;40.00;17.20;;;1.40;98.50;;;;;;5108236;28;20046;-74
2022/01/11 06:23:35;;;;;;;34.90;15.77;;;1.40;98.50;;;;;;5113765;28;20421;-75
2022/01/11 06:26:01;;;;;;;36.03;16.93;;;1.40;98.50;;;;;;5112771;28;20036;-75
2022/01/11 06:28:26;;;;;;;37.30;16.83;;;1.30;98.60;;;;;;5112903;28;20012;-75
2022/01/11 06:30:52;;;;;;;35.73;16.87;;;1.40;98.50;;;;;;5095925;28;20084;-75
2022/01/11 06:33:18;;;;;;;36.33;16.70;;;1.40;98.60;;;;;;5114223;28;20024;-75
2022/01/11 06:35:43;;;;;;;34.27;17.47;;;1.40;98.60;;;;;;5095893;28;20024;-75
2022/01/11 06:38:09;;;;;;;32.77;15.80;;;1.50;98.70;;;;;;5095802;28;20535;-75
2022/01/11 06:40:34;;;;;;;37.23;18.10;;;1.40;98.60;;;;;;5114250;28;20100;-75
2022/01/11 06:43:00;;;;;;;33.00;15.37;;;1.50;98.70;;;;;;5114305;28;20054;-75
2022/01/11 06:45:26;;;;;;;34.57;16.17;;;1.50;98.70;;;;;;5112428;28;20118;-75
2022/01/11 06:47:53;;;;;;;37.87;18.10;;;1.50;98.70;;;;;;5112574;28;20057;-75
2022/01/11 06:50:19;;;;;;;34.33;15.80;;;1.60;98.70;;;;;;5092406;28;20120;-75
2022/01/11 06:52:45;;;;;;;32.77;16.80;;;1.50;98.70;;;;;;5105759;28;20480;-75
2022/01/11 06:55:12;;;;;;;38.07;16.93;;;1.60;98.70;;;;;;5113766;28;20062;-75
2022/01/11 06:57:38;;;;;;;38.50;18.43;;;1.50;98.50;;;;;;5113366;28;20098;-73
2022/01/11 07:00:09;;;;;;;36.83;17.70;;;1.50;98.50;;;;;;5111690;28;20119;-73
2022/01/11 07:02:35;;;;;;;38.63;17.10;;;1.50;98.50;;;;;;5110686;28;20015;-73
2022/01/11 07:05:01;;;;;;;35.30;16.30;;;1.50;98.60;;;;;;5111838;28;20053;-74
2022/01/11 07:07:26;;;;;;;33.63;17.23;;;1.50;98.60;;;;;;5113604;28;20441;-73
2022/01/11 07:09:52;;;;;;;35.77;15.77;;;1.50;98.50;;;;;;5078708;28;20024;-73
2022/01/11 07:12:18;;;;;;;34.60;15.97;;;1.40;98.50;;;;;;5112037;28;20016;-73
2022/01/11 07:14:43;;;;;;;35.50;17.83;;;1.50;98.50;;;;;;5113187;28;20262;-73
2022/01/11 07:17:09;;;;;;;32.77;16.60;;;1.40;98.50;;;;;;5077836;28;20031;-73
2022/01/11 07:19:35;;;;;;;39.70;19.07;;;1.40;98.60;;;;;;5111274;28;20027;-72
2022/01/11 07:22:01;;;;;;;36.37;16.20;;;1.40;98.50;;;;;;5111228;28;20372;-72
2022/01/11 07:24:27;;;;;;;34.37;17.50;;;1.40;98.50;;;;;;5112417;28;20028;-72
2022/01/11 07:26:53;;;;;;;38.43;17.13;;;1.40;98.50;;;;;;5111782;28;20016;-73
2022/01/11 07:29:19;;;;;;;32.53;17.13;;;1.40;98.50;;;;;;5111622;28;20028;-73
2022/01/11 07:31:45;;;;;;;33.57;17.37;;;1.40;98.50;;;;;;5112727;28;20497;-73
2022/01/11 07:34:11;;;;;;;34.00;16.10;;;1.40;98.40;;;;;;5112664;28;20110;-73
2022/01/11 07:36:37;;;;;;;41.57;16.87;;;1.30;98.30;;;;;;5115718;28;20093;-73
2022/01/11 07:39:04;;;;;;;30.07;15.33;;;1.30;98.30;;;;;;5115523;28;20356;-72
2022/01/11 07:41:30;;;;;;;32.10;15.13;;;1.30;98.30;;;;;;5116585;28;20024;-73
2022/01/11 07:43:56;;;;;;;38.20;16.60;;;1.30;98.30;;;;;;5115844;28;20107;-76
2022/01/11 07:46:23;;;;;;;32.97;16.67;;;1.30;98.40;;;;;;5117138;28;20027;-75
2022/01/11 07:48:49;;;;;;;35.10;17.00;;;1.30;98.40;;;;;;5115993;28;20039;-75
2022/01/11 07:51:15;;;;;;;33.03;16.37;;;1.30;98.40;;;;;;5116792;28;20027;-75
2022/01/11 07:53:41;;;;;;;33.37;15.77;;;1.40;98.40;;;;;;5114683;28;20081;-75
2022/01/11 07:56:06;;;;;;;36.73;19.00;;;1.40;98.40;;;;;;5097728;28;20117;-75
2022/01/11 07:58:32;;;;;;;38.87;18.20;;;1.40;98.50;;;;;;5115822;28;20077;-75
2022/01/11 08:00:58;;;;;;;36.17;17.53;;;1.40;98.40;;;;;;5114924;28;20047;-75
2022/01/11 08:03:23;;;;;;;37.90;17.60;;;1.40;98.40;;;;;;5116768;28;20027;-76
2022/01/11 08:05:50;;;;;;;35.10;17.30;;;1.50;98.40;;;;;;5116141;28;20032;-76
2022/01/11 08:08:16;;;;;;;40.70;18.60;;;1.50;98.40;;;;;;5112851;28;20051;-74
2022/01/11 08:10:42;;;;;;;38.70;19.73;;;1.50;98.70;;;;;;5114663;28;20468;-73
2022/01/11 08:13:08;;;;;;;41.87;20.27;;;1.40;98.40;;;;;;5115335;28;20035;-73
2022/01/11 08:15:34;;;;;;;36.83;18.17;;;1.50;98.70;;;;;;5097170;28;20031;-74
2022/01/11 08:18:00;;;;;;;38.13;19.07;;;1.60;98.50;;;;;;5116303;28;20038;-73
2022/01/11 08:20:25;;;;;;;41.77;19.27;;;1.60;98.50;;;;;;5115039;28;20052;-73
2022/01/11 08:22:53;;;;;;;38.97;18.43;;;1.70;98.60;;;;;;5114224;28;20085;-73
2022/01/11 08:25:20;;;;;;;38.40;18.60;;;1.70;98.50;;;;;;5113568;28;20104;-73
2022/01/11 08:27:46;;;;;;;36.33;18.33;;;1.70;98.50;;;;;;5114605;28;20486;-76
2022/01/11 08:30:12;;;;;;;38.17;18.00;;;1.70;98.60;;;;;;5096364;28;20032;-76
2022/01/11 08:32:38;;;;;;;36.33;17.37;;;1.80;98.60;;;;;;5114690;28;20027;-77
2022/01/11 08:35:05;;;;;;;32.27;16.60;;;1.90;98.70;;;;;;5112404;28;20118;-77
2022/01/11 08:37:30;;;;;;;30.73;15.83;;;1.90;98.70;;;;;;5115540;28;20027;-75
2022/01/11 08:39:57;;;;;;;29.63;15.17;;;2.00;98.80;;;;;;5115019;28;20548;-75
2022/01/11 08:42:22;;;;;;;28.73;15.30;;;2.10;98.90;;;;;;5114684;28;20024;-75
2022/01/11 08:44:49;;;;;;;30.03;15.37;;;2.10;98.90;;;;;;5116098;28;20072;-76
2022/01/11 08:47:16;;;;;;;28.47;15.43;;;2.20;98.90;;;;;;5113614;28;20023;-76
2022/01/11 08:49:42;;;;;;;30.37;15.33;;;2.30;98.90;;;;;;5116010;28;20055;-76
2022/01/11 08:52:09;;;;;;;27.83;14.53;;;2.30;98.90;;;;;;5116035;28;20069;-76
2022/01/11 08:54:34;;;;;;;32.50;16.67;;;2.40;98.90;;;;;;5115883;28;20035;-75
2022/01/11 08:57:00;;;;;;;28.87;15.53;;;2.50;98.90;;;;;;5114567;28;20028;-75
2022/01/11 08:59:26;;;;;;;28.40;15.50;;;2.50;98.70;;;;;;5115687;28;20460;-76
2022/01/11 09:01:55;;;;;;;27.13;14.70;;;2.50;98.60;;;;;;5114360;28;20392;-76
2022/01/11 09:04:21;;;;;;;28.03;15.30;;;2.60;98.60;;;;;;5114018;28;20107;-76
2022/01/11 09:06:48;;;;;;;26.70;14.70;;;2.60;98.70;;;;;;5115780;28;20015;-73
2022/01/11 09:09:14;;;;;;;28.77;15.20;;;2.60;98.70;;;;;;5114508;28;20062;-74
2022/01/11 09:11:41;;;;;;;31.57;16.93;;;2.70;98.70;;;;;;5115592;28;20062;-72
2022/01/11 09:14:07;;;;;;;27.30;15.77;;;2.80;98.60;;;;;;5114314;28;20023;-75
2022/01/11 09:16:33;;;;;;;29.23;15.97;;;2.80;98.50;;;;;;5114250;28;20096;-77
2022/01/11 09:18:58;;;;;;;28.90;14.83;;;2.80;98.40;;;;;;5115598;28;20032;-74
2022/01/11 09:21:25;;;;;;;31.23;16.07;;;2.90;98.30;;;;;;5115521;28;20024;-74
2022/01/11 09:23:51;;;;;;;27.40;15.27;;;2.90;98.30;;;;;;5115464;28;20024;-74
2022/01/11 09:26:17;;;;;;;29.60;15.77;;;3.00;98.50;;;;;;5114053;28;20058;-76
2022/01/11 09:28:43;;;;;;;28.37;15.63;;;3.00;98.10;;;;;;5113997;28;20036;-76
2022/01/11 09:31:08;;;;;;;30.17;15.50;;;3.10;98.10;;;;;;5113761;28;20019;-76
2022/01/11 09:33:34;;;;;;;28.57;14.80;;;3.20;98.00;;;;;;5097005;28;20027;-76
2022/01/11 09:36:00;;;;;;;25.73;14.50;;;3.20;98.00;;;;;;5115119;28;20027;-77
2022/01/11 09:38:27;;;;;;;27.53;14.60;;;3.40;98.00;;;;;;5114927;28;20137;-77
2022/01/11 09:40:55;;;;;;;32.13;15.40;;;3.40;97.80;;;;;;5114784;28;20028;-76
2022/01/11 09:43:22;;;;;;;31.57;16.73;;;3.40;97.60;;;;;;5114059;28;20463;-75
2022/01/11 09:45:49;;;;;;;32.83;16.00;;;3.50;97.40;;;;;;5096656;28;20027;-75
2022/01/11 09:48:18;;;;;;;28.47;14.97;;;3.50;97.30;;;;;;5113258;28;20030;-75
2022/01/11 09:50:44;;;;;;;30.23;14.87;;;3.60;97.20;;;;;;5113616;28;20015;-76
2022/01/11 09:53:10;;;;;;;24.00;14.27;;;3.70;97.20;;;;;;5113562;28;20540;-75
2022/01/11 09:55:36;;;;;;;28.03;15.10;;;3.80;97.30;;;;;;5096676;28;20520;-73
2022/01/11 09:58:04;;;;;;;27.20;14.97;;;3.80;97.20;;;;;;5096321;28;20028;-73
2022/01/11 10:00:29;;;;;;;27.97;14.43;;;3.80;97.20;;;;;;5096193;28;20079;-72
2022/01/11 10:02:55;;;;;;;29.03;14.67;;;4.00;97.10;;;;;;5112020;28;20070;-72
2022/01/11 10:05:21;;;;;;;29.63;14.70;;;3.90;96.80;;;;;;5113607;28;20028;-73
2022/01/11 10:07:47;;;;;;;28.77;15.40;;;3.90;96.70;;;;;;5114034;28;20011;-72
2022/01/11 10:10:12;;;;;;;30.07;16.50;;;4.00;96.70;;;;;;5114510;28;20083;-72
2022/01/11 10:12:44;;;;;;;31.23;15.17;;;4.00;96.50;;;;;;5114486;28;20027;-72
2022/01/11 10:15:10;;;;;;;30.80;14.60;;;4.00;96.30;;;;;;5114368;28;20517;-72
2022/01/11 10:17:44;;;;;;;31.27;15.70;;;4.00;96.20;;;;;;5114418;28;20028;-73
2022/01/11 10:20:13;;;;;;;28.23;15.05;;;4.00;96.20;;;;;;5114279;28;20011;-72
2022/01/11 10:22:52;;;;;;;26.83;14.40;;;4.10;96.50;;;;;;5111582;28;20032;-73
2022/01/11 10:25:19;;;;;;;26.93;14.27;;;4.00;96.60;;;;;;5111155;28;20027;-73
2022/01/11 10:27:57;;;;;;;31.30;14.87;;;4.10;96.40;;;;;;5112472;28;20028;-73
2022/01/11 10:30:25;;;;;;;29.23;15.03;;;4.10;96.10;;;;;;5112788;28;20015;-73
2022/01/11 10:32:52;;;;;;;32.40;15.67;;;4.10;96.10;;;;;;5112686;28;20120;-72
2022/01/11 10:35:25;;;;;;;30.80;15.07;;;4.20;95.70;;;;;;5112921;28;20043;-73
2022/01/11 10:37:53;;;;;;;31.00;15.20;;;4.20;95.60;;;;;;5112692;28;20035;-72
2022/01/11 10:40:23;;;;;;;33.50;15.60;;;4.20;95.60;;;;;;5114250;28;20425;-73
2022/01/11 10:42:53;;;;;;;29.70;14.37;;;4.30;95.60;;;;;;5114003;28;20035;-73
2022/01/11 10:45:20;;;;;;;29.60;15.33;;;4.30;95.60;;;;;;5111994;28;20026;-73
2022/01/11 10:47:52;;;;;;;35.17;15.87;;;4.40;95.30;;;;;;5112010;28;20020;-73
2022/01/11 10:50:37;;;;;;;31.17;14.87;;;4.50;95.50;;;;;;5111703;28;20036;-73
2022/01/11 10:53:09;;;;;;;30.60;15.17;;;4.60;95.50;;;;;;5111624;28;20036;-73
2022/01/11 10:55:35;;;;;;;31.33;15.57;;;4.70;94.90;;;;;;5109386;28;20023;-73
2022/01/11 10:58:03;;;;;;;29.80;14.83;;;4.70;94.90;;;;;;5112350;28;20130;-73
2022/01/11 11:00:33;;;;;;;26.10;14.10;;;4.90;95.00;;;;;;5112943;28;20082;-73
2022/01/11 11:03:10;;;;;;;29.83;14.30;;;4.90;95.00;;;;;;5113050;28;20480;-73
2022/01/11 11:05:46;;;;;;;27.70;14.80;;;5.00;94.90;;;;;;5110108;28;20030;-72
2022/01/11 11:08:18;;;;;;;28.30;15.00;;;5.00;94.40;;;;;;5113897;28;20028;-73
2022/01/11 11:10:44;;;;;;;29.97;15.83;;;5.10;94.10;;;;;;5110821;28;20089;-73
2022/01/11 11:13:16;;;;;;;31.83;15.57;;;5.10;94.10;;;;;;5113555;28;20480;-74
2022/01/11 11:15:42;;;;;;;27.93;13.87;;;5.20;94.10;;;;;;5112145;28;20408;-76
2022/01/11 11:18:24;;;;;;;25.53;14.40;;;5.20;94.20;;;;;;5112165;28;20035;-76
2022/01/11 11:20:49;;;;;;;27.10;13.73;;;5.30;94.40;;;;;;5113519;28;20035;-76
2022/01/11 11:23:17;;;;;;;27.07;14.43;;;5.40;94.50;;;;;;5112136;28;20032;-76
2022/01/11 11:25:43;;;;;;;25.50;14.20;;;5.60;94.60;;;;;;5112049;28;20024;-76
2022/01/11 11:28:09;;;;;;;27.37;14.87;;;5.80;94.20;;;;;;5112092;28;20039;-76
2022/01/11 11:30:35;;;;;;;29.57;14.47;;;5.90;94.20;;;;;;5111803;28;20028;-76
2022/01/11 11:33:02;;;;;;;26.00;13.70;;;6.00;93.80;;;;;;5111653;28;20040;-76
2022/01/11 11:35:28;;;;;;;27.13;15.07;;;6.10;94.40;;;;;;5109883;28;20390;-76
2022/01/11 11:38:08;;;;;;;27.53;13.60;;;6.30;93.90;;;;;;5110443;28;20050;-76
2022/01/11 11:40:34;;;;;;;28.43;13.73;;;6.60;93.00;;;;;;5111182;28;20028;-76
2022/01/11 11:43:02;;;;;;;27.53;14.10;;;6.60;92.70;;;;;;5092999;28;20040;-76
2022/01/11 11:45:38;;;;;;;27.87;13.73;;;6.70;92.40;;;;;;5111171;28;20035;-76
2022/01/11 11:48:10;;;;;;;26.23;13.13;;;6.90;92.20;;;;;;5111172;28;20091;-76
2022/01/11 11:50:58;;;;;;;28.43;14.57;;;7.10;91.90;;;;;;5111170;28;20360;-76
2022/01/11 11:53:34;;;;;;;24.23;14.03;;;7.20;91.40;;;;;;5108807;28;20040;-76
2022/01/11 11:56:18;;;;;;;22.87;13.40;;;7.40;91.40;;;;;;5106806;28;20036;-77
2022/01/11 11:58:49;;;;;;;27.13;14.13;;;7.50;91.00;;;;;;5106442;28;20190;-77
2022/01/11 12:01:44;;;;;;;26.00;13.90;;;7.60;90.80;;;;;;5109593;28;20135;-77
2022/01/11 12:04:36;;;;;;;23.37;12.97;;;7.70;90.30;;;;;;5109353;28;20096;-76
2022/01/11 12:07:40;;;;;;;23.90;12.90;;;7.70;88.90;;;;;;5111192;28;20023;-77
2022/01/11 12:10:12;;;;;;;21.97;12.97;;;7.70;88.60;;;;;;5111769;28;20027;-76
2022/01/11 12:12:51;;;;;;;22.73;12.13;;;7.70;88.50;;;;;;5113196;28;20062;-76
2022/01/11 12:15:31;;;;;;;23.10;12.17;;;7.70;88.00;;;;;;5113100;28;20023;-76
2022/01/11 12:17:57;;;;;;;28.10;14.47;;;7.70;86.50;;;;;;5111862;28;20039;-76
2022/01/11 12:20:52;;;;;;;22.03;12.60;;;7.50;84.70;;;;;;5112646;28;20399;-76
2022/01/11 12:23:36;;;;;;;23.57;12.80;;;7.50;86.50;;;;;;5116341;28;20023;-77
2022/01/11 12:26:16;;;;;;;23.67;12.98;;;7.50;85.50;;;;;;5116474;28;20046;-76
2022/01/11 12:28:43;;;;;;;26.03;13.37;;;7.50;84.50;;;;;;5116388;28;20031;-76
2022/01/11 12:31:35;;;;;;;26.57;12.43;;;7.40;84.30;;;;;;5115129;28;20070;-76
2022/01/11 12:34:02;;;;;;;22.80;11.90;;;7.40;84.50;;;;;;5113322;28;20043;-76
2022/01/11 12:36:49;;;;;;;19.77;12.47;;;7.40;84.70;;;;;;5081052;28;20034;-76
2022/01/11 12:39:15;;;;;;;20.73;11.50;;;7.40;84.80;;;;;;5114798;28;20475;-76
2022/01/11 12:41:40;;;;;;;22.27;11.77;;;7.50;85.10;;;;;;5114998;28;20032;-76
2022/01/11 12:44:24;;;;;;;24.27;12.50;;;7.40;85.20;;;;;;5114960;28;20027;-76
2022/01/11 12:47:08;;;;;;;22.30;12.75;;;7.40;84.90;;;;;;5115754;28;20019;-75
2022/01/11 12:49:36;;;;;;;28.43;12.27;;;7.40;84.70;;;;;;5116407;28;20024;-75